Time;durP1;ratioP1;P1;durP2;ratioP2;P2;SDS_P1;SDS_P2;PMS_P1;PMS_P2;Temp;Humidity;BMP_temperature;BMP_pressure;BME280_temperature;BME280_humidity;BME280_pressure;Samples;Min_cycle;Max_cycle;Signal;HPM_P1;HPM_P2
2022/04/01 00:00:15;;;;;;;7.47;2.97;;;1.80;99.90;;;;;;5167332;27;20061;-65
2022/04/01 00:02:41;;;;;;;6.50;2.58;;;1.80;99.90;;;;;;5167608;27;20039;-65
2022/04/01 00:05:07;;;;;;;5.32;2.60;;;1.90;99.90;;;;;;5149415;27;20043;-65
2022/04/01 00:07:34;;;;;;;5.00;2.97;;;1.60;99.90;;;;;;5166590;27;20482;-65
2022/04/01 00:10:00;;;;;;;8.75;2.70;;;1.80;99.90;;;;;;5168120;27;20046;-65
2022/04/01 00:12:26;;;;;;;4.38;2.40;;;1.60;99.90;;;;;;5168683;27;20047;-65
2022/04/01 00:14:51;;;;;;;3.10;2.05;;;1.60;99.90;;;;;;5167652;27;20038;-65
2022/04/01 00:17:17;;;;;;;4.80;2.40;;;1.70;99.90;;;;;;5167995;27;20099;-65
2022/04/01 00:19:43;;;;;;;5.18;2.90;;;1.70;99.90;;;;;;5168458;27;20031;-65
2022/04/01 00:22:09;;;;;;;3.58;2.20;;;1.80;99.90;;;;;;5167864;27;20205;-65
2022/04/01 00:24:34;;;;;;;5.22;2.00;;;1.60;99.90;;;;;;5148434;27;20035;-65
2022/04/01 00:27:00;;;;;;;3.33;1.85;;;1.50;99.90;;;;;;5166793;27;20051;-65
2022/04/01 00:29:26;;;;;;;4.72;2.22;;;1.70;99.90;;;;;;5166932;27;20078;-66
2022/04/01 00:31:58;;;;;;;4.50;1.73;;;1.60;99.90;;;;;;5166601;27;20043;-65
2022/04/01 00:34:26;;;;;;;4.93;2.38;;;1.70;99.90;;;;;;5166688;27;20102;-65
2022/04/01 00:36:52;;;;;;;5.82;2.70;;;1.70;99.90;;;;;;5166480;27;20050;-65
2022/04/01 00:39:19;;;;;;;2.42;1.83;;;1.50;99.90;;;;;;5166005;27;20148;-65
2022/04/01 00:41:47;;;;;;;6.63;2.42;;;1.70;99.90;;;;;;5166589;27;20050;-65
2022/04/01 00:44:24;;;;;;;4.75;2.20;;;1.50;99.90;;;;;;5166623;27;20034;-65
2022/04/01 00:47:01;;;;;;;3.10;1.98;;;1.70;99.90;;;;;;5166915;27;20043;-65
2022/04/01 00:49:28;;;;;;;2.70;1.98;;;1.80;99.90;;;;;;5167795;27;20054;-65
2022/04/01 00:51:56;;;;;;;6.38;2.67;;;1.50;99.90;;;;;;5166159;27;20045;-65
2022/04/01 00:54:23;;;;;;;7.68;2.38;;;1.50;99.90;;;;;;5166526;27;20047;-65
2022/04/01 00:56:48;;;;;;;5.05;3.17;;;1.90;99.90;;;;;;5166661;27;20142;-65
2022/04/01 00:59:14;;;;;;;4.63;2.22;;;1.60;99.90;;;;;;5166280;27;20055;-65
2022/04/01 01:01:43;;;;;;;8.27;2.63;;;1.80;99.90;;;;;;5165853;27;20042;-65
2022/04/01 01:04:12;;;;;;;6.68;1.90;;;1.70;99.90;;;;;;5166426;27;20050;-65
2022/04/01 01:06:41;;;;;;;3.05;2.28;;;1.90;99.90;;;;;;5165950;27;20202;-65
2022/04/01 01:09:07;;;;;;;6.57;2.25;;;1.70;99.90;;;;;;5165533;27;20050;-65
2022/04/01 01:11:36;;;;;;;4.03;2.08;;;1.80;99.90;;;;;;5165973;27;20108;-65
2022/04/01 01:14:09;;;;;;;6.05;2.22;;;1.90;99.90;;;;;;5166043;27;20074;-65
2022/04/01 01:16:36;;;;;;;6.72;3.15;;;1.70;99.90;;;;;;5165816;27;20076;-65
2022/04/01 01:19:05;;;;;;;7.70;2.47;;;1.80;99.90;;;;;;5167232;27;20035;-65
2022/04/01 01:21:32;;;;;;;3.92;2.22;;;1.80;99.90;;;;;;5165242;27;20047;-65
2022/04/01 01:24:31;;;;;;;3.67;1.83;;;1.70;99.90;;;;;;5166346;27;20050;-65
2022/04/01 01:26:58;;;;;;;3.92;1.80;;;1.90;99.90;;;;;;5155561;27;20042;-65
2022/04/01 01:29:27;;;;;;;4.80;2.60;;;1.90;99.90;;;;;;5166762;27;20204;-66
2022/04/01 01:31:55;;;;;;;4.30;2.23;;;1.80;99.90;;;;;;5148724;27;20057;-65
2022/04/01 01:34:21;;;;;;;3.90;1.98;;;1.60;99.90;;;;;;5165698;27;20051;-65
2022/04/01 01:36:47;;;;;;;3.08;2.00;;;1.70;99.90;;;;;;5147335;27;20478;-65
2022/04/01 01:39:14;;;;;;;4.20;2.40;;;1.80;99.90;;;;;;5165376;27;20039;-65
2022/04/01 01:41:41;;;;;;;4.25;2.38;;;1.80;99.90;;;;;;5166214;27;20053;-65
2022/04/01 01:44:07;;;;;;;3.17;2.08;;;1.70;99.90;;;;;;5147829;27;20054;-65
2022/04/01 01:46:34;;;;;;;3.80;2.38;;;1.70;99.90;;;;;;5148246;27;20055;-65
2022/04/01 01:49:00;;;;;;;3.65;2.30;;;1.80;99.90;;;;;;5166806;27;20039;-65
2022/04/01 01:56:54;;;;;;;3.83;2.42;;;1.50;99.90;;;;;;5166321;27;20057;-65
2022/04/01 01:59:20;;;;;;;3.65;2.10;;;1.70;99.90;;;;;;5146891;27;20070;-65
2022/04/01 02:01:46;;;;;;;4.45;1.90;;;1.80;99.90;;;;;;5165033;27;20107;-65
2022/04/01 02:04:14;;;;;;;4.13;2.55;;;1.60;99.90;;;;;;5165646;27;20083;-65
2022/04/01 02:06:40;;;;;;;4.55;2.20;;;1.70;99.90;;;;;;5165578;27;20039;-65
2022/04/01 02:09:05;;;;;;;4.63;2.30;;;2.00;99.90;;;;;;5165246;27;20046;-65
2022/04/01 02:11:31;;;;;;;3.72;2.22;;;1.90;99.90;;;;;;5148208;27;20053;-65
2022/04/01 02:13:57;;;;;;;5.15;2.50;;;1.90;99.90;;;;;;5146829;27;20042;-66
2022/04/01 02:16:23;;;;;;;3.85;2.40;;;1.70;99.90;;;;;;5165692;27;20047;-65
2022/04/01 02:18:49;;;;;;;3.97;2.08;;;1.80;99.90;;;;;;5166534;27;20074;-65
2022/04/01 02:21:16;;;;;;;6.25;2.25;;;1.80;99.90;;;;;;5168666;27;20387;-65
2022/04/01 02:23:47;;;;;;;4.38;2.65;;;1.90;99.90;;;;;;5169110;27;20039;-65
2022/04/01 02:26:14;;;;;;;5.78;2.22;;;1.90;99.90;;;;;;5169773;27;20054;-65
2022/04/01 02:28:44;;;;;;;3.50;2.38;;;1.80;99.90;;;;;;5151407;27;20046;-65
2022/04/01 02:31:14;;;;;;;4.83;2.37;;;1.90;99.90;;;;;;5150428;27;20050;-65
2022/04/01 02:33:42;;;;;;;4.22;2.13;;;1.70;99.90;;;;;;5168705;27;20117;-65
2022/04/01 02:36:10;;;;;;;3.78;2.20;;;1.60;99.90;;;;;;5170073;27;20058;-65
2022/04/01 02:38:41;;;;;;;3.83;2.35;;;1.80;99.90;;;;;;5151626;27;20039;-65
2022/04/01 02:41:11;;;;;;;3.72;2.28;;;1.60;99.90;;;;;;5169445;27;20042;-65
2022/04/01 02:43:37;;;;;;;3.17;2.50;;;1.80;99.90;;;;;;5151363;27;20043;-65
2022/04/01 02:46:05;;;;;;;4.97;3.03;;;1.70;99.90;;;;;;5151500;27;20075;-65
2022/04/01 02:48:31;;;;;;;3.40;2.05;;;1.80;99.90;;;;;;5169024;27;20038;-65
2022/04/01 02:50:57;;;;;;;5.05;2.38;;;1.70;99.90;;;;;;5169071;27;20053;-65
2022/04/01 02:53:23;;;;;;;4.75;2.40;;;1.80;99.90;;;;;;5168420;27;20043;-65
2022/04/01 02:55:48;;;;;;;5.18;1.90;;;1.80;99.90;;;;;;5168979;27;20047;-65
2022/04/01 02:58:14;;;;;;;4.28;2.30;;;1.80;99.90;;;;;;5169597;27;20046;-65
2022/04/01 03:00:40;;;;;;;4.00;2.42;;;1.60;99.90;;;;;;5149705;27;20494;-65
2022/04/01 03:03:07;;;;;;;4.45;1.95;;;1.70;99.90;;;;;;5168436;27;20039;-65
2022/04/01 03:05:37;;;;;;;7.35;2.97;;;1.60;99.90;;;;;;5168332;27;20031;-65
2022/04/01 03:08:05;;;;;;;5.43;2.30;;;1.50;99.90;;;;;;5169278;27;20039;-65
2022/04/01 03:10:35;;;;;;;2.78;2.00;;;1.70;99.90;;;;;;5150222;27;20042;-65
2022/04/01 03:13:01;;;;;;;3.72;1.67;;;1.60;99.90;;;;;;5169049;27;20423;-65
2022/04/01 03:15:30;;;;;;;4.38;2.22;;;1.60;99.90;;;;;;5169049;27;20098;-65
2022/04/01 03:17:57;;;;;;;4.50;2.33;;;1.70;99.90;;;;;;5168089;27;20394;-65
2022/04/01 03:20:23;;;;;;;3.72;2.15;;;1.70;99.90;;;;;;5168448;27;20482;-65
2022/04/01 03:22:53;;;;;;;4.18;2.10;;;1.60;99.90;;;;;;5167402;27;20037;-65
2022/04/01 03:25:20;;;;;;;2.90;1.83;;;1.70;99.90;;;;;;5168345;27;20072;-65
2022/04/01 03:27:47;;;;;;;3.72;2.20;;;1.70;99.90;;;;;;5168582;27;20107;-65
2022/04/01 03:30:14;;;;;;;3.75;1.75;;;1.70;99.90;;;;;;5169235;27;20062;-65
2022/04/01 03:32:41;;;;;;;2.80;2.00;;;1.80;99.90;;;;;;5168153;27;20053;-65
2022/04/01 03:35:14;;;;;;;4.25;1.98;;;1.80;99.90;;;;;;5168433;27;20031;-65
2022/04/01 03:37:41;;;;;;;2.72;1.90;;;1.70;99.90;;;;;;5167806;27;20031;-65
2022/04/01 03:40:08;;;;;;;6.15;2.35;;;1.70;99.90;;;;;;5168120;27;20042;-65
2022/04/01 03:42:34;;;;;;;3.15;2.17;;;1.80;99.90;;;;;;5167879;27;20064;-65
2022/04/01 03:45:06;;;;;;;4.63;2.10;;;1.90;99.90;;;;;;5167932;27;20519;-65
2022/04/01 03:47:41;;;;;;;6.72;2.65;;;1.80;99.90;;;;;;5149478;27;20142;-65
2022/04/01 03:50:10;;;;;;;4.55;1.83;;;1.90;99.90;;;;;;5168675;27;20042;-65
2022/04/01 03:52:36;;;;;;;4.88;2.28;;;2.00;99.90;;;;;;5168948;27;20306;-65
2022/04/01 03:55:05;;;;;;;2.85;1.90;;;1.80;99.90;;;;;;5168741;27;20042;-65
2022/04/01 03:57:39;;;;;;;5.15;2.78;;;1.90;99.90;;;;;;5168451;27;20067;-65
2022/04/01 04:00:13;;;;;;;4.22;2.20;;;2.00;99.90;;;;;;5166936;27;20054;-65
2022/04/01 04:02:41;;;;;;;2.83;1.70;;;2.10;99.90;;;;;;5167589;27;20065;-65
2022/04/01 04:05:09;;;;;;;5.28;3.08;;;2.00;99.90;;;;;;5168543;27;20039;-65
2022/04/01 04:07:36;;;;;;;5.65;2.28;;;2.20;99.90;;;;;;5168224;27;20043;-65
2022/04/01 04:10:04;;;;;;;3.78;2.15;;;2.10;99.90;;;;;;5167038;27;20030;-65
2022/04/01 04:12:30;;;;;;;5.63;2.50;;;2.10;99.90;;;;;;5167229;27;20038;-65
2022/04/01 04:14:57;;;;;;;5.53;2.40;;;1.90;99.90;;;;;;5148442;27;20047;-65
2022/04/01 04:17:38;;;;;;;4.20;2.03;;;2.00;99.90;;;;;;5167404;27;20038;-65
2022/04/01 04:20:06;;;;;;;3.65;2.10;;;2.00;99.90;;;;;;5168307;27;20051;-65
2022/04/01 04:22:48;;;;;;;5.18;2.10;;;2.10;99.90;;;;;;5167214;27;20060;-65
2022/04/01 04:25:17;;;;;;;3.95;1.90;;;2.10;99.90;;;;;;5148259;27;20053;-65
2022/04/01 04:27:57;;;;;;;5.60;2.20;;;2.10;99.90;;;;;;5166983;27;20070;-65
2022/04/01 04:30:35;;;;;;;4.40;1.90;;;2.10;99.90;;;;;;5166732;27;20103;-65
2022/04/01 04:33:06;;;;;;;5.80;2.00;;;2.10;99.90;;;;;;5147305;27;20888;-65
2022/04/01 04:35:43;;;;;;;4.53;2.20;;;2.10;99.90;;;;;;5166457;27;20039;-65
2022/04/01 04:38:10;;;;;;;5.68;2.70;;;2.20;99.90;;;;;;5166477;27;20050;-65
2022/04/01 04:40:36;;;;;;;3.03;1.73;;;2.10;99.90;;;;;;5167487;27;20085;-65
2022/04/01 04:43:03;;;;;;;3.75;2.05;;;2.10;99.90;;;;;;5166609;27;20045;-65
2022/04/01 04:45:29;;;;;;;3.45;2.00;;;2.10;99.90;;;;;;5165888;27;20050;-65
2022/04/01 04:47:57;;;;;;;3.42;2.00;;;2.10;99.90;;;;;;5166505;27;20067;-65
2022/04/01 04:50:23;;;;;;;3.95;2.00;;;2.10;99.90;;;;;;5166286;27;20050;-65
2022/04/01 04:52:51;;;;;;;5.93;2.20;;;2.20;99.90;;;;;;5166073;27;20044;-65
2022/04/01 04:55:18;;;;;;;3.10;1.88;;;2.10;99.90;;;;;;5148425;27;20102;-65
2022/04/01 04:57:45;;;;;;;3.72;1.80;;;2.10;99.90;;;;;;5166645;27;20043;-65
2022/04/01 05:00:13;;;;;;;4.60;1.90;;;2.00;99.90;;;;;;5166029;27;20095;-65
2022/04/01 05:03:06;;;;;;;3.40;1.80;;;2.00;99.90;;;;;;5166992;27;20054;-65
2022/04/01 05:05:42;;;;;;;6.93;1.67;;;2.10;99.90;;;;;;5166269;27;20034;-65
2022/04/01 05:08:31;;;;;;;5.07;2.10;;;2.00;99.90;;;;;;5166181;27;20687;-65
2022/04/01 05:11:24;;;;;;;4.15;1.77;;;2.10;99.90;;;;;;5166035;27;20038;-65
2022/04/01 05:14:31;;;;;;;4.30;1.83;;;2.10;99.90;;;;;;5165809;27;20058;-65
2022/04/01 05:17:04;;;;;;;4.20;1.80;;;2.10;99.90;;;;;;5165928;27;20406;-65
2022/04/01 05:19:31;;;;;;;3.75;1.90;;;2.00;99.90;;;;;;5134902;27;20047;-65
2022/04/01 05:22:10;;;;;;;2.38;1.60;;;2.10;99.90;;;;;;5167084;27;20087;-65
2022/04/01 05:24:52;;;;;;;2.75;1.55;;;2.10;99.90;;;;;;5166666;27;20047;-65
2022/04/01 05:27:28;;;;;;;2.63;1.65;;;2.00;99.90;;;;;;5165851;27;20054;-65
2022/04/01 05:30:13;;;;;;;5.75;2.28;;;2.20;99.90;;;;;;5156221;27;20039;-65
2022/04/01 05:33:08;;;;;;;4.70;1.65;;;2.10;99.90;;;;;;5146770;27;20415;-64
2022/04/01 05:35:40;;;;;;;2.88;1.95;;;2.10;99.90;;;;;;5105310;27;20098;-64
2022/04/01 05:38:09;;;;;;;3.22;1.63;;;2.00;99.90;;;;;;5144961;27;20496;-64
2022/04/01 05:40:37;;;;;;;4.43;1.75;;;2.10;99.90;;;;;;5124557;28;20051;-64
2022/04/01 05:43:04;;;;;;;5.28;2.25;;;2.30;99.90;;;;;;5109781;28;20035;-65
2022/04/01 05:45:31;;;;;;;3.95;2.15;;;2.20;99.90;;;;;;5124670;28;20045;-64
2022/04/01 05:47:57;;;;;;;4.50;1.83;;;2.10;99.90;;;;;;5125407;28;20443;-64
2022/04/01 05:50:26;;;;;;;5.28;1.80;;;2.20;99.90;;;;;;5142514;28;20526;-64
2022/04/01 05:52:52;;;;;;;6.55;2.17;;;2.30;99.90;;;;;;5125903;28;20043;-64
2022/04/01 05:55:25;;;;;;;5.05;1.98;;;2.40;99.90;;;;;;5141829;27;20051;-64
2022/04/01 05:57:54;;;;;;;4.25;2.05;;;2.30;99.90;;;;;;5126860;27;20046;-63
2022/04/01 06:00:21;;;;;;;6.95;1.70;;;2.20;99.90;;;;;;5143702;27;20035;-64
2022/04/01 06:02:56;;;;;;;3.53;1.60;;;2.30;99.90;;;;;;5145816;27;20095;-64
2022/04/01 06:05:43;;;;;;;4.97;1.80;;;2.30;99.90;;;;;;5129438;27;20039;-64
2022/04/01 06:08:33;;;;;;;4.63;2.00;;;2.40;99.90;;;;;;5148518;27;20039;-64
2022/04/01 06:11:02;;;;;;;4.50;1.60;;;2.40;99.90;;;;;;5145639;27;20050;-65
2022/04/01 06:13:37;;;;;;;4.00;1.80;;;2.40;99.90;;;;;;5128786;27;20039;-65
2022/04/01 06:16:10;;;;;;;3.08;1.60;;;2.40;99.90;;;;;;5128544;27;20035;-65
2022/04/01 06:19:13;;;;;;;5.38;1.67;;;2.50;99.90;;;;;;5147592;27;20055;-64
2022/04/01 06:21:48;;;;;;;5.35;1.85;;;2.40;99.90;;;;;;5120587;27;20442;-67
2022/04/01 06:24:57;;;;;;;3.05;1.80;;;2.40;99.90;;;;;;5128259;27;20869;-68
2022/04/01 06:27:41;;;;;;;5.53;2.00;;;2.40;99.90;;;;;;5071970;27;20059;-66
2022/04/01 06:30:13;;;;;;;3.05;1.77;;;2.50;99.90;;;;;;5124578;27;20047;-65
2022/04/01 06:33:13;;;;;;;5.13;1.95;;;2.60;99.90;;;;;;5124245;27;20039;-66
2022/04/01 06:35:59;;;;;;;7.18;2.22;;;2.50;99.90;;;;;;5086537;27;20063;-66
2022/04/01 06:38:39;;;;;;;3.40;1.73;;;2.40;99.90;;;;;;5128316;27;20078;-66
2022/04/01 06:41:09;;;;;;;5.93;2.00;;;2.50;99.90;;;;;;5096183;27;20531;-66
2022/04/01 06:43:35;;;;;;;5.07;2.55;;;2.40;99.90;;;;;;5140364;27;20034;-64
2022/04/01 06:46:06;;;;;;;3.72;1.77;;;2.30;99.90;;;;;;5098189;28;20047;-66
2022/04/01 06:48:32;;;;;;;5.57;2.20;;;2.50;99.90;;;;;;5115481;27;20470;-65
2022/04/01 06:50:58;;;;;;;5.63;2.00;;;2.50;99.90;;;;;;5112157;27;20112;-66
2022/04/01 06:53:25;;;;;;;6.38;1.95;;;2.50;99.90;;;;;;5117282;27;20035;-66
2022/04/01 06:55:52;;;;;;;6.30;2.20;;;2.30;99.90;;;;;;5110753;27;20059;-67
2022/04/01 06:58:19;;;;;;;5.95;2.35;;;2.60;99.90;;;;;;5137416;27;20043;-68
2022/04/01 07:00:45;;;;;;;2.47;1.85;;;2.60;99.90;;;;;;5113685;27;20050;-66
2022/04/01 07:03:11;;;;;;;4.63;1.98;;;2.70;99.90;;;;;;5124019;27;20407;-66
2022/04/01 07:05:38;;;;;;;4.15;1.90;;;2.80;99.90;;;;;;5111756;27;20067;-66
2022/04/01 07:08:05;;;;;;;4.90;2.00;;;2.70;99.90;;;;;;5119578;27;20039;-66
2022/04/01 07:10:31;;;;;;;5.68;1.90;;;3.00;99.90;;;;;;5128702;27;20058;-66
2022/04/01 07:12:58;;;;;;;3.28;2.17;;;3.20;99.90;;;;;;5121568;27;20047;-66
2022/04/01 07:15:24;;;;;;;4.88;1.75;;;3.10;99.90;;;;;;5129950;27;20108;-67
2022/04/01 07:17:51;;;;;;;1.77;1.40;;;3.00;99.90;;;;;;5122400;27;20076;-66
2022/04/01 07:20:17;;;;;;;1.55;1.20;;;3.10;99.90;;;;;;5110711;27;20051;-66
2022/04/01 07:22:43;;;;;;;4.68;1.60;;;3.10;99.90;;;;;;5121472;27;20078;-66
2022/04/01 07:25:12;;;;;;;3.55;1.50;;;3.20;99.90;;;;;;5093518;27;20067;-67
2022/04/01 07:27:39;;;;;;;3.97;2.00;;;3.40;99.90;;;;;;5121270;27;20051;-66
2022/04/01 07:30:08;;;;;;;2.75;1.77;;;3.20;99.90;;;;;;5128788;27;20047;-66
2022/04/01 07:32:35;;;;;;;3.13;2.00;;;3.20;99.90;;;;;;5120973;27;20298;-66
2022/04/01 07:35:13;;;;;;;4.13;2.10;;;3.30;99.90;;;;;;5130184;27;20578;-66
2022/04/01 07:37:39;;;;;;;5.68;2.35;;;3.30;99.90;;;;;;5096670;27;20047;-66
2022/04/01 07:40:05;;;;;;;4.40;3.08;;;3.30;99.90;;;;;;5106627;28;20139;-66
2022/04/01 07:42:31;;;;;;;5.28;2.78;;;3.20;99.90;;;;;;5125557;27;20043;-66
2022/04/01 07:44:57;;;;;;;5.55;2.58;;;3.20;99.90;;;;;;5110664;27;20075;-66
2022/04/01 07:47:24;;;;;;;6.30;3.50;;;3.20;99.90;;;;;;5120895;27;20556;-66
2022/04/01 07:49:51;;;;;;;4.70;2.38;;;3.20;99.90;;;;;;5110120;27;20070;-66
2022/04/01 07:52:18;;;;;;;5.95;3.70;;;3.30;99.90;;;;;;5120748;27;20430;-66
2022/04/01 07:54:45;;;;;;;3.78;2.47;;;3.40;99.90;;;;;;5095197;27;20055;-66
2022/04/01 07:57:13;;;;;;;4.28;3.08;;;3.40;99.90;;;;;;5137795;27;20502;-66
2022/04/01 07:59:39;;;;;;;4.22;2.55;;;3.30;99.90;;;;;;5121280;27;20321;-66
2022/04/01 08:02:06;;;;;;;7.05;3.10;;;3.40;99.90;;;;;;5093112;27;20111;-67
2022/04/01 08:04:32;;;;;;;4.90;3.38;;;3.50;99.90;;;;;;5097241;27;20039;-66
2022/04/01 08:06:58;;;;;;;4.60;3.38;;;3.60;99.90;;;;;;5070314;27;20116;-67
2022/04/01 08:09:25;;;;;;;5.57;3.85;;;3.60;99.90;;;;;;5097359;27;20043;-66
2022/04/01 08:11:55;;;;;;;5.55;3.05;;;3.60;99.90;;;;;;5114356;27;20070;-66
2022/04/01 08:14:20;;;;;;;4.45;2.83;;;3.60;99.90;;;;;;5086856;27;20058;-66
2022/04/01 08:16:47;;;;;;;4.85;3.13;;;3.70;99.90;;;;;;5093028;27;20354;-67
2022/04/01 08:19:13;;;;;;;5.90;3.55;;;3.60;99.90;;;;;;5128151;27;20447;-66
2022/04/01 08:21:41;;;;;;;6.03;4.07;;;3.60;99.90;;;;;;5110896;27;20107;-66
2022/04/01 08:24:09;;;;;;;8.35;3.50;;;3.80;99.90;;;;;;5121828;27;20137;-66
2022/04/01 08:26:35;;;;;;;4.93;3.63;;;3.70;99.90;;;;;;5111093;27;20051;-66
2022/04/01 08:29:02;;;;;;;6.70;3.90;;;3.90;99.90;;;;;;5139895;27;20416;-66
2022/04/01 08:31:30;;;;;;;6.32;3.80;;;3.80;99.90;;;;;;5128634;27;20054;-66
2022/04/01 08:33:56;;;;;;;7.90;4.55;;;3.90;99.90;;;;;;5138911;27;20050;-66
2022/04/01 08:36:22;;;;;;;6.90;4.60;;;3.90;99.90;;;;;;5101696;27;20051;-66
2022/04/01 08:38:48;;;;;;;11.10;5.22;;;3.70;99.90;;;;;;5142038;27;20065;-66
2022/04/01 08:41:18;;;;;;;7.28;4.43;;;3.90;99.90;;;;;;5130670;27;20152;-66
2022/04/01 08:43:46;;;;;;;9.32;5.15;;;3.80;99.90;;;;;;5141659;27;20049;-66
2022/04/01 08:46:13;;;;;;;6.53;5.00;;;3.90;99.90;;;;;;5110763;27;20055;-67
2022/04/01 08:48:39;;;;;;;6.97;5.13;;;3.80;99.90;;;;;;5138928;27;20043;-66
2022/04/01 08:51:05;;;;;;;7.20;4.93;;;3.90;99.90;;;;;;5128517;27;20050;-66
2022/04/01 08:53:38;;;;;;;7.68;5.18;;;3.90;99.90;;;;;;5141282;27;20043;-66
2022/04/01 08:56:05;;;;;;;9.07;5.15;;;3.80;99.90;;;;;;5111651;27;20419;-66
2022/04/01 08:58:31;;;;;;;8.38;4.72;;;4.00;99.90;;;;;;5138909;27;20121;-66
2022/04/01 09:00:59;;;;;;;7.00;5.40;;;4.00;99.90;;;;;;5121300;27;20053;-66
2022/04/01 09:03:26;;;;;;;7.07;5.25;;;3.80;99.90;;;;;;5120866;27;20070;-66
2022/04/01 09:05:54;;;;;;;7.78;4.70;;;4.00;99.90;;;;;;5112342;27;20050;-66
2022/04/01 09:08:27;;;;;;;6.88;4.82;;;4.00;99.90;;;;;;5120130;27;20298;-66
2022/04/01 09:11:01;;;;;;;8.15;4.78;;;3.90;99.90;;;;;;5109699;27;20070;-66
2022/04/01 09:13:50;;;;;;;8.38;5.80;;;4.00;99.90;;;;;;5138356;27;20044;-66
2022/04/01 09:16:24;;;;;;;8.02;4.75;;;4.00;99.90;;;;;;5127690;27;20059;-66
2022/04/01 09:18:53;;;;;;;8.70;5.50;;;3.90;99.90;;;;;;5119981;27;20046;-67
2022/04/01 09:21:49;;;;;;;8.52;6.40;;;3.90;99.90;;;;;;5109560;27;20324;-66
2022/04/01 09:24:15;;;;;;;8.35;6.03;;;3.70;99.90;;;;;;5111742;28;20055;-67
2022/04/01 09:26:41;;;;;;;8.68;5.78;;;3.90;99.90;;;;;;5109357;27;20619;-66
2022/04/01 09:29:09;;;;;;;8.50;5.45;;;3.80;99.90;;;;;;5122899;27;20070;-66
2022/04/01 09:31:41;;;;;;;8.45;5.70;;;4.00;99.90;;;;;;5139031;27;20046;-66
2022/04/01 09:34:13;;;;;;;10.27;5.95;;;3.80;99.90;;;;;;5127328;27;20046;-66
2022/04/01 09:36:41;;;;;;;11.00;6.28;;;3.90;99.90;;;;;;5104192;27;20050;-66
2022/04/01 09:39:17;;;;;;;10.10;6.22;;;3.90;99.90;;;;;;5130212;27;20046;-66
2022/04/01 09:41:46;;;;;;;11.65;5.80;;;3.90;99.90;;;;;;5145539;27;20050;-66
2022/04/01 09:44:43;;;;;;;8.73;6.30;;;4.10;99.90;;;;;;5159122;27;20073;-66
2022/04/01 09:47:08;;;;;;;11.40;6.40;;;3.80;99.90;;;;;;5010325;28;20569;-66
2022/04/01 09:49:39;;;;;;;10.68;6.30;;;3.80;99.90;;;;;;5054469;28;20293;-66
2022/04/01 09:52:12;;;;;;;;;;;4.00;99.90;;;;;;5027111;28;20679;-66
2022/04/01 09:54:46;;;;;;;11.18;7.30;;;4.00;99.90;;;;;;5050008;28;19925;-66
2022/04/01 09:57:14;;;;;;;8.35;6.70;;;4.10;99.90;;;;;;5007185;28;20204;-66
2022/04/01 09:59:42;;;;;;;11.13;6.93;;;4.00;99.90;;;;;;5035359;28;20045;-67
2022/04/01 10:02:08;;;;;;;9.35;6.82;;;4.20;99.90;;;;;;5027195;28;20798;-67
2022/04/01 10:04:34;;;;;;;12.73;7.65;;;4.30;99.90;;;;;;5012220;28;20427;-67
2022/04/01 10:07:01;;;;;;;10.05;6.78;;;4.30;99.90;;;;;;5017782;28;20075;-67
2022/04/01 10:09:29;;;;;;;9.77;7.07;;;4.40;99.90;;;;;;5036752;28;20041;-66
2022/04/01 10:11:57;;;;;;;8.70;5.88;;;4.20;99.90;;;;;;5010700;28;20061;-66
2022/04/01 10:14:26;;;;;;;7.50;6.07;;;4.20;99.90;;;;;;5053789;28;20495;-66
2022/04/01 10:16:55;;;;;;;9.82;6.30;;;4.20;99.90;;;;;;5026872;28;20594;-66
2022/04/01 10:19:32;;;;;;;10.50;6.93;;;4.30;99.90;;;;;;5053936;28;20044;-67
2022/04/01 10:21:59;;;;;;;9.88;6.55;;;4.30;99.90;;;;;;5026017;28;20120;-67
2022/04/01 10:24:46;;;;;;;10.90;7.25;;;4.30;99.90;;;;;;5124277;27;20065;-66
2022/04/01 10:27:23;;;;;;;7.50;5.70;;;4.40;99.90;;;;;;5115803;28;20051;-66
2022/04/01 10:29:49;;;;;;;7.75;5.10;;;4.30;99.90;;;;;;5149262;27;20097;-67
2022/04/01 10:32:22;;;;;;;9.07;5.13;;;4.50;99.90;;;;;;5146306;27;20111;-67
2022/04/01 10:34:49;;;;;;;7.30;4.75;;;4.70;99.90;;;;;;5133785;27;20058;-66
2022/04/01 10:37:16;;;;;;;6.40;5.07;;;4.70;99.90;;;;;;5117806;27;20051;-66
2022/04/01 10:39:51;;;;;;;9.63;5.53;;;4.70;99.90;;;;;;5124705;28;20581;-67
2022/04/01 10:42:17;;;;;;;10.00;6.35;;;4.60;99.90;;;;;;5115049;27;20087;-67
2022/04/01 10:44:55;;;;;;;6.88;4.07;;;4.60;99.90;;;;;;5163588;27;20117;-67
2022/04/01 10:53:32;;;;;;;6.47;3.47;;;4.50;99.90;;;;;;5142930;27;20042;-67
2022/04/01 10:56:22;;;;;;;6.82;4.00;;;4.40;99.90;;;;;;5132615;27;20232;-66
2022/04/01 10:59:06;;;;;;;5.60;3.20;;;4.50;99.90;;;;;;5142450;27;20066;-65
2022/04/01 11:01:34;;;;;;;3.97;3.00;;;4.30;99.90;;;;;;5129840;27;20541;-64
2022/04/01 11:04:20;;;;;;;5.20;3.58;;;4.20;99.90;;;;;;5124092;27;20039;-65
2022/04/01 11:06:54;;;;;;;5.43;3.78;;;4.40;99.90;;;;;;5091608;27;20048;-65
2022/04/01 11:09:39;;;;;;;5.85;3.45;;;4.30;99.90;;;;;;5134136;27;20129;-65
2022/04/01 11:12:34;;;;;;;6.47;3.30;;;4.40;99.90;;;;;;5132334;27;20058;-65
2022/04/01 11:15:07;;;;;;;6.57;3.15;;;4.70;99.90;;;;;;5149668;27;20047;-65
2022/04/01 11:17:45;;;;;;;4.85;3.22;;;4.60;99.90;;;;;;5130688;27;20047;-65
2022/04/01 11:20:27;;;;;;;4.72;3.20;;;4.60;99.90;;;;;;5141606;27;20053;-65
2022/04/01 11:22:53;;;;;;;5.30;3.17;;;4.70;99.90;;;;;;5112033;27;20038;-65
2022/04/01 11:25:22;;;;;;;5.88;3.65;;;4.60;99.90;;;;;;5142535;27;20054;-65
2022/04/01 11:28:14;;;;;;;5.88;3.22;;;4.80;99.90;;;;;;5115035;27;20046;-65
2022/04/01 11:30:40;;;;;;;6.35;3.13;;;4.80;99.90;;;;;;5131710;27;20087;-65
2022/04/01 11:33:10;;;;;;;5.15;3.05;;;4.80;99.90;;;;;;5138137;27;20043;-65
2022/04/01 11:35:41;;;;;;;6.28;3.10;;;4.60;99.90;;;;;;5109215;27;20099;-65
2022/04/01 11:38:16;;;;;;;6.10;3.47;;;4.50;99.90;;;;;;5130355;27;20070;-64
2022/04/01 11:40:43;;;;;;;7.00;3.00;;;4.80;99.90;;;;;;5095062;27;20043;-65
2022/04/01 11:43:11;;;;;;;5.15;3.70;;;4.90;99.90;;;;;;5107895;27;20347;-65
2022/04/01 11:45:50;;;;;;;4.78;2.88;;;4.90;99.90;;;;;;5110730;27;20043;-65
2022/04/01 11:48:18;;;;;;;4.32;3.10;;;4.80;99.90;;;;;;5109295;27;20046;-65
2022/04/01 11:50:46;;;;;;;5.20;3.50;;;4.90;99.90;;;;;;5127000;27;20609;-65
2022/04/01 11:53:49;;;;;;;4.05;2.65;;;4.70;99.90;;;;;;5141098;27;20038;-65
2022/04/01 11:56:20;;;;;;;4.53;2.65;;;5.00;99.90;;;;;;5123018;27;20541;-64
2022/04/01 11:59:05;;;;;;;4.35;2.30;;;4.70;99.90;;;;;;5140995;27;20051;-64
2022/04/01 12:01:58;;;;;;;4.75;2.70;;;4.80;99.90;;;;;;5122735;27;20067;-65
2022/04/01 12:04:35;;;;;;;3.88;2.70;;;4.90;99.90;;;;;;5138609;27;20099;-65
2022/04/01 12:10:04;;;;;;;5.45;2.90;;;4.80;99.90;;;;;;5141884;27;20050;-64
2022/04/01 12:12:31;;;;;;;2.85;2.03;;;4.80;99.90;;;;;;5113683;27;20110;-65
2022/04/01 12:14:57;;;;;;;5.38;2.60;;;4.80;99.90;;;;;;5127552;27;20062;-65
2022/04/01 12:17:24;;;;;;;3.40;2.13;;;4.90;99.90;;;;;;5130919;27;20058;-65
2022/04/01 12:20:06;;;;;;;3.08;2.30;;;5.10;99.90;;;;;;5159945;27;20467;-64
2022/04/01 12:22:35;;;;;;;4.53;2.42;;;5.30;99.90;;;;;;5120361;27;20055;-64
2022/04/01 12:25:00;;;;;;;3.10;2.00;;;5.40;99.90;;;;;;5133462;27;20169;-65
2022/04/01 12:27:26;;;;;;;3.08;2.30;;;5.40;99.90;;;;;;5130718;27;20062;-65
2022/04/01 12:29:52;;;;;;;5.53;2.20;;;5.30;99.90;;;;;;5141769;27;20142;-65
2022/04/01 12:32:17;;;;;;;4.45;2.45;;;5.40;99.90;;;;;;5113240;27;20050;-65
2022/04/01 12:34:47;;;;;;;5.57;2.30;;;5.50;99.90;;;;;;5154399;27;20346;-65
2022/04/01 12:37:14;;;;;;;4.00;2.30;;;5.60;99.90;;;;;;5139318;27;20055;-65
2022/04/01 12:39:44;;;;;;;4.88;2.47;;;5.40;99.90;;;;;;5136238;27;20031;-65
2022/04/01 12:42:11;;;;;;;3.20;2.15;;;5.30;99.90;;;;;;5144940;27;20067;-65
2022/04/01 12:44:44;;;;;;;3.88;2.25;;;5.20;99.90;;;;;;5141655;27;20057;-64
2022/04/01 12:47:12;;;;;;;3.70;2.15;;;5.20;99.90;;;;;;5129872;27;20118;-65
2022/04/01 12:49:42;;;;;;;4.10;2.20;;;5.00;99.90;;;;;;5140949;27;20046;-65
2022/04/01 12:52:16;;;;;;;3.28;2.10;;;5.10;99.90;;;;;;5129734;27;20100;-65
2022/04/01 12:54:47;;;;;;;3.83;2.20;;;5.10;99.90;;;;;;5134808;27;20046;-65
2022/04/01 12:57:13;;;;;;;3.35;2.10;;;5.20;99.90;;;;;;5127849;27;20428;-65
2022/04/01 12:59:45;;;;;;;4.57;2.30;;;5.10;99.90;;;;;;5140425;27;20418;-65
2022/04/01 13:02:15;;;;;;;4.43;2.10;;;5.20;99.90;;;;;;5147413;27;20341;-65
2022/04/01 13:04:46;;;;;;;2.40;2.08;;;5.30;99.90;;;;;;5132532;27;20071;-65
2022/04/01 13:07:33;;;;;;;6.10;3.53;;;5.40;99.90;;;;;;5093702;27;20053;-65
2022/04/01 13:10:06;;;;;;;5.78;3.75;;;5.30;99.90;;;;;;5147819;27;20411;-65
2022/04/01 13:12:40;;;;;;;4.68;2.50;;;5.30;99.90;;;;;;5149268;27;20112;-65
2022/04/01 13:15:07;;;;;;;3.22;2.40;;;5.20;99.90;;;;;;5142150;27;20070;-65
2022/04/01 13:17:46;;;;;;;4.30;2.60;;;5.30;99.90;;;;;;5146784;27;20051;-65
2022/04/01 13:20:15;;;;;;;3.75;2.20;;;5.30;99.90;;;;;;5118109;27;20070;-65
2022/04/01 13:22:42;;;;;;;5.30;2.20;;;5.20;99.90;;;;;;5146981;27;20458;-65
2022/04/01 13:25:09;;;;;;;3.85;2.08;;;5.50;99.90;;;;;;5135870;27;20288;-65
2022/04/01 13:27:35;;;;;;;5.65;2.42;;;5.30;99.90;;;;;;5129645;27;20150;-68
2022/04/01 13:30:05;;;;;;;7.13;2.30;;;5.30;99.90;;;;;;5140553;27;20073;-65